createdAt,value
2023-01-02T00:09:29.970Z,206.15802
2023-01-02T00:24:32.246Z,28.76624
2023-01-02T00:39:34.564Z,2.39719
2023-01-02T00:54:36.859Z,0
2023-01-02T01:09:39.089Z,0
2023-01-02T01:24:41.412Z,0
2023-01-02T01:39:43.632Z,0
2023-01-02T01:54:45.800Z,0
2023-01-02T02:09:48.486Z,0
2023-01-02T02:24:50.790Z,0
2023-01-02T02:39:53.317Z,0
2023-01-02T02:54:55.586Z,0
2023-01-02T03:09:57.898Z,0
2023-01-02T03:25:00.164Z,0
2023-01-02T03:40:02.376Z,0
2023-01-02T03:55:04.697Z,0
2023-01-02T04:10:06.951Z,0
2023-01-02T04:25:09.550Z,0
2023-01-02T04:40:11.839Z,0
2023-01-02T04:55:14.219Z,0
2023-01-02T05:10:16.513Z,0
2023-01-02T05:25:18.768Z,0
2023-01-02T05:40:21.051Z,0
2023-01-02T05:55:23.301Z,0
2023-01-02T06:10:25.659Z,0
2023-01-02T06:25:27.952Z,0
2023-01-02T06:40:30.177Z,0
2023-01-02T06:55:32.413Z,0
2023-01-02T07:10:34.670Z,0
2023-01-02T07:25:42.454Z,0
2023-01-02T07:40:46.607Z,0
2023-01-02T07:55:48.857Z,0
2023-01-02T08:10:51.110Z,0
2023-01-02T08:25:57.514Z,0
2023-01-02T08:41:00.349Z,0
2023-01-02T08:56:02.669Z,0
2023-01-02T09:11:04.885Z,0
2023-01-02T09:26:07.215Z,0
2023-01-02T09:41:09.525Z,0
2023-01-02T09:56:11.762Z,0
2023-01-02T10:11:14.110Z,0
2023-01-02T10:26:16.373Z,0
2023-01-02T10:41:18.595Z,0
2023-01-02T10:56:20.850Z,0
2023-01-02T11:11:23.108Z,0
2023-01-02T11:26:25.419Z,0
2023-01-02T11:41:27.811Z,0
2023-01-02T11:56:30.167Z,0
2023-01-02T12:11:32.367Z,0
2023-01-02T12:26:34.585Z,0
2023-01-02T12:42:01.348Z,0
2023-01-02T12:57:04.658Z,0
2023-01-02T13:12:07.212Z,0
2023-01-02T13:27:09.426Z,0
2023-01-02T13:42:11.865Z,0
2023-01-02T13:57:14.179Z,0
2023-01-02T14:12:16.459Z,0
2023-01-02T14:27:18.751Z,0
2023-01-02T14:42:22.707Z,0
2023-01-02T14:57:28.465Z,0
2023-01-02T15:12:30.726Z,2.39719
2023-01-02T15:27:32.977Z,22.77327
2023-01-02T15:42:35.273Z,125.85228
2023-01-02T15:57:37.501Z,346.39343
2023-01-02T16:12:39.727Z,648.4389
2023-01-02T16:27:42.124Z,969.66187
2023-01-02T16:42:44.396Z,1349.61584
2023-01-02T16:57:46.670Z,1785.90381
2023-01-02T17:12:48.912Z,2151.47461
2023-01-02T17:27:51.242Z,2777.14038
2023-01-02T17:42:53.482Z,3352.46509
2023-01-02T17:57:55.761Z,3722.83032
2023-01-02T18:12:58.084Z,4034.4646
2023-01-02T18:28:00.311Z,4296.95654
2023-01-02T18:43:02.695Z,4942.99805
2023-01-02T18:58:05.072Z,5168.3335
2023-01-02T19:13:08.402Z,5698.11182
2023-01-02T19:28:10.714Z,6347.74951
2023-01-02T19:43:12.956Z,6628.22021
2023-01-02T19:58:15.224Z,6099.64062
2023-01-02T20:13:17.523Z,5949.81641
2023-01-02T20:28:19.757Z,5559.0752
2023-01-02T20:43:22.044Z,5607.01855
2023-01-02T20:58:24.381Z,5206.68848
2023-01-02T21:13:26.601Z,4835.12451
2023-01-02T21:28:28.921Z,4147.13232
2023-01-02T21:43:31.158Z,3743.2063
2023-01-02T21:58:33.394Z,3843.88818
2023-01-02T22:13:35.657Z,3194.25073
2023-01-02T22:28:37.978Z,2624.91895
2023-01-02T22:43:40.272Z,2248.56079
2023-01-02T22:58:42.679Z,1801.48547
2023-01-02T23:13:44.935Z,1296.87781
2023-01-02T23:29:07.658Z,879.7674
2023-01-02T23:38:10.556Z,672.41077
2023-01-02T23:53:12.799Z,348.79062
